Time;durP1;ratioP1;P1;durP2;ratioP2;P2;SDS_P1;SDS_P2;PMS_P1;PMS_P2;Temp;Humidity;BMP_temperature;BMP_pressure;BME280_temperature;BME280_humidity;BME280_pressure;Samples;Min_cycle;Max_cycle;Signal;HPM_P1;HPM_P2
2023/09/13 00:02:05;;;;;;;;;19.33;14.33;;;;;22.36;71.12;101122.72;5056153;27;45326;-67
2023/09/13 00:04:30;;;;;;;;;16.00;16.00;;;;;22.20;72.07;101122.47;5073938;27;45532;-68
2023/09/13 00:06:58;;;;;;;;;21.00;16.67;;;;;22.17;71.98;101117.22;5075189;28;45220;-69
2023/09/13 00:09:24;;;;;;;;;21.67;17.33;;;;;22.11;72.32;101101.47;5060199;27;45421;-69
2023/09/13 00:11:50;;;;;;;;;15.00;14.00;;;;;22.18;71.80;101118.94;5062069;27;45325;-68
2023/09/13 00:14:15;;;;;;;;;15.33;14.67;;;;;22.20;71.86;101121.56;5059596;27;45440;-69
2023/09/13 00:16:41;;;;;;;;;21.67;16.33;;;;;22.07;73.24;101113.19;5063410;27;45592;-69
2023/09/13 00:19:06;;;;;;;;;17.67;17.00;;;;;21.99;74.15;101112.63;5071983;27;45382;-69
2023/09/13 00:21:32;;;;;;;;;17.33;16.00;;;;;21.89;74.10;101127.25;5061658;27;45438;-70
2023/09/13 00:23:58;;;;;;;;;11.00;10.33;;;;;21.96;72.92;101118.94;5070326;27;45394;-69
2023/09/13 00:26:24;;;;;;;;;16.00;16.00;;;;;22.01;71.98;101116.97;5077496;27;45529;-68
2023/09/13 00:28:50;;;;;;;;;17.67;16.67;;;;;22.17;71.73;101127.03;5076625;28;45638;-69
2023/09/13 00:31:16;;;;;;;;;21.67;17.33;;;;;22.24;71.67;101128.56;5077208;27;45280;-68
2023/09/13 00:33:42;;;;;;;;;18.33;18.33;;;;;22.11;72.83;101122.78;5075784;27;45873;-69
2023/09/13 00:36:07;;;;;;;;;23.00;21.33;;;;;22.10;72.31;101120.22;5076642;28;45786;-69
2023/09/13 00:38:33;;;;;;;;;21.33;19.00;;;;;22.00;73.25;101125.03;5076186;28;46134;-68
2023/09/13 00:40:58;;;;;;;;;23.33;22.33;;;;;21.92;73.07;101121.78;5076645;27;45507;-68
2023/09/13 00:43:25;;;;;;;;;23.00;18.67;;;;;21.90;74.36;101121.88;5075404;28;45451;-68
2023/09/13 00:45:54;;;;;;;;;19.00;18.00;;;;;21.77;74.96;101123.25;5060497;28;45495;-69
2023/09/13 00:48:23;;;;;;;;;16.33;16.33;;;;;21.85;74.45;101131.81;5063489;27;45473;-69
2023/09/13 00:50:50;;;;;;;;;14.33;13.67;;;;;21.87;74.11;101135.31;5070613;28;45491;-68
2023/09/13 00:53:18;;;;;;;;;23.33;19.00;;;;;21.88;74.01;101131.72;5071156;27;45378;-68
2023/09/13 00:55:47;;;;;;;;;19.33;13.33;;;;;21.92;73.25;101133.31;5064729;27;45526;-68
2023/09/13 00:58:13;;;;;;;;;21.00;16.33;;;;;22.02;73.09;101142.72;5066092;28;45643;-68
2023/09/13 01:00:40;;;;;;;;;14.67;13.67;;;;;22.00;72.55;101128.56;5063664;28;45366;-68
2023/09/13 01:03:06;;;;;;;;;15.67;15.67;;;;;22.05;72.22;101124.88;5058990;27;45499;-70
2023/09/13 01:05:35;;;;;;;;;18.33;16.33;;;;;22.06;72.90;101119.44;5055239;27;45674;-69
2023/09/13 01:08:01;;;;;;;;;19.00;16.67;;;;;22.01;72.69;101116.97;5055173;27;45407;-69
2023/09/13 01:10:26;;;;;;;;;15.00;14.00;;;;;22.05;73.22;101116.88;5055315;27;45321;-67
2023/09/13 01:12:52;;;;;;;;;15.00;12.67;;;;;21.96;73.46;101123.41;5055423;27;45451;-67
2023/09/13 01:15:17;;;;;;;;;18.33;17.00;;;;;21.80;73.12;101108.00;5058609;27;45496;-68
2023/09/13 01:17:58;;;;;;;;;15.33;13.33;;;;;21.91;73.51;101117.41;5061975;27;45553;-70
2023/09/13 01:20:42;;;;;;;;;16.00;14.00;;;;;21.96;73.09;101126.09;5057546;27;45473;-67
2023/09/13 01:23:27;;;;;;;;;17.00;15.33;;;;;21.98;73.09;101125.09;5059481;27;45572;-68
2023/09/13 01:26:20;;;;;;;;;19.67;16.67;;;;;21.78;73.22;101127.66;5060044;27;45485;-69
2023/09/13 01:28:47;;;;;;;;;18.33;16.67;;;;;21.73;73.85;101122.50;5058448;27;47129;-68
2023/09/13 01:31:18;;;;;;;;;15.33;14.00;;;;;21.83;72.82;101138.16;5058058;27;45509;-68
2023/09/13 01:33:47;;;;;;;;;14.33;14.00;;;;;21.76;72.87;101137.53;5058767;27;45353;-68
2023/09/13 01:36:12;;;;;;;;;19.33;15.33;;;;;21.62;74.27;101130.06;5058870;27;45523;-68
2023/09/13 01:38:39;;;;;;;;;17.33;16.33;;;;;21.49;74.67;101132.28;5058482;27;45386;-67
2023/09/13 01:41:27;;;;;;;;;19.00;14.67;;;;;21.52;74.48;101144.63;5058317;27;45548;-69
2023/09/13 01:43:55;;;;;;;;;17.33;14.00;;;;;21.61;74.13;101141.63;5058863;27;45585;-68
2023/09/13 01:46:31;;;;;;;;;15.67;13.67;;;;;21.54;74.28;101143.66;5060281;27;45529;-67
2023/09/13 01:48:59;;;;;;;;;16.67;16.67;;;;;21.54;73.97;101148.97;5059972;27;46224;-68
2023/09/13 01:51:26;;;;;;;;;14.00;13.33;;;;;21.57;73.90;101153.34;5059940;27;45374;-68
2023/09/13 01:53:54;;;;;;;;;18.33;13.33;;;;;21.49;74.16;101150.94;5056935;27;45421;-68
2023/09/13 01:56:23;;;;;;;;;14.67;12.67;;;;;21.49;73.12;101148.28;5058208;27;45425;-70
2023/09/13 01:58:49;;;;;;;;;17.33;15.67;;;;;21.31;72.73;101132.97;5071946;27;48588;-69
2023/09/13 02:01:15;;;;;;;;;14.67;14.67;;;;;21.50;72.47;101160.69;5057796;27;45795;-69
2023/09/13 02:03:45;;;;;;;;;14.67;13.00;;;;;21.45;74.04;101175.09;5057934;27;45425;-66
2023/09/13 02:06:12;;;;;;;;;17.00;14.67;;;;;21.36;74.34;101170.97;5063506;28;45790;-68
2023/09/13 02:08:41;;;;;;;;;18.00;14.33;;;;;21.45;73.31;101167.09;5073545;27;46224;-69
2023/09/13 02:11:07;;;;;;;;;17.67;15.33;;;;;21.47;73.48;101167.91;5057459;27;45468;-69
2023/09/13 02:13:33;;;;;;;;;17.00;16.00;;;;;21.34;73.75;101163.00;5065567;28;45388;-69
2023/09/13 02:15:59;;;;;;;;;17.67;14.00;;;;;21.40;73.44;101164.59;5078828;27;45599;-67
2023/09/13 02:18:25;;;;;;;;;16.67;12.00;;;;;21.39;73.24;101153.09;5078114;27;46542;-68
2023/09/13 02:20:50;;;;;;;;;15.67;14.67;;;;;21.58;72.82;101168.41;5078389;27;45440;-68
2023/09/13 02:23:16;;;;;;;;;15.33;14.00;;;;;21.63;72.57;101176.22;5079353;27;45511;-69
2023/09/13 02:25:45;;;;;;;;;19.00;15.33;;;;;21.59;73.35;101164.81;5078570;27;45464;-68
2023/09/13 02:28:11;;;;;;;;;14.67;11.00;;;;;21.57;73.33;101177.34;5078128;27;45469;-69
2023/09/13 02:30:38;;;;;;;;;14.33;14.33;;;;;21.47;73.42;101179.44;5077887;27;45445;-68
2023/09/13 02:33:05;;;;;;;;;16.67;14.33;;;;;21.48;73.87;101175.88;5076784;28;45471;-69
2023/09/13 02:35:31;;;;;;;;;14.33;10.00;;;;;21.46;73.09;101161.72;5078863;27;45471;-69
2023/09/13 02:37:57;;;;;;;;;14.67;13.00;;;;;21.59;73.00;101173.69;5078209;27;45511;-68
2023/09/13 02:40:23;;;;;;;;;14.00;13.67;;;;;21.67;72.44;101188.53;5076671;27;45525;-69
2023/09/13 02:42:49;;;;;;;;;14.33;14.00;;;;;21.70;72.03;101189.28;5078606;28;45553;-67
2023/09/13 02:45:14;;;;;;;;;14.33;14.33;;;;;21.67;72.87;101175.19;5078018;27;45452;-69
2023/09/13 02:47:40;;;;;;;;;18.33;16.33;;;;;21.63;73.57;101192.22;5077680;27;48127;-68
2023/09/13 02:50:06;;;;;;;;;17.67;12.67;;;;;21.61;73.18;101186.94;5077775;27;45274;-68
2023/09/13 02:52:33;;;;;;;;;12.67;12.67;;;;;21.72;72.81;101187.41;5078578;27;45436;-68
2023/09/13 02:55:00;;;;;;;;;13.67;13.33;;;;;21.77;72.38;101192.59;5079199;28;45501;-69
2023/09/13 02:57:26;;;;;;;;;17.00;14.00;;;;;21.79;72.93;101193.41;5070559;27;46599;-68
2023/09/13 02:59:53;;;;;;;;;23.00;18.33;;;;;21.68;73.55;101203.59;5059252;28;45308;-68
2023/09/13 03:02:19;;;;;;;;;15.00;15.00;;;;;21.67;72.32;101191.19;5059153;27;45455;-68
2023/09/13 03:04:44;;;;;;;;;13.33;12.33;;;;;21.63;71.83;101178.91;5070984;27;45321;-67
2023/09/13 03:07:10;;;;;;;;;15.33;12.33;;;;;21.76;71.62;101189.06;5065271;27;45259;-68
2023/09/13 03:09:36;;;;;;;;;14.00;11.33;;;;;21.78;71.23;101188.97;5073341;27;45381;-68
2023/09/13 03:12:02;;;;;;;;;19.00;14.00;;;;;21.89;71.03;101204.59;5075195;27;45367;-69
2023/09/13 03:14:30;;;;;;;;;16.00;13.00;;;;;21.92;70.69;101201.78;5076261;27;45417;-69
2023/09/13 03:16:56;;;;;;;;;15.67;10.67;;;;;21.93;70.32;101200.88;5073571;28;45472;-69
2023/09/13 03:19:21;;;;;;;;;11.67;11.33;;;;;21.90;70.34;101193.88;5077395;27;45403;-69
2023/09/13 03:21:47;;;;;;;;;11.33;9.67;;;;;21.96;70.02;101195.44;5077560;27;45378;-69
2023/09/13 03:24:13;;;;;;;;;11.00;11.00;;;;;21.89;69.95;101192.13;5077705;27;45440;-69
2023/09/13 03:26:39;;;;;;;;;10.00;10.00;;;;;21.95;69.74;101199.91;5076901;27;45598;-68
2023/09/13 03:29:05;;;;;;;;;14.00;7.67;;;;;21.92;68.81;101197.31;5077795;27;45523;-68
2023/09/13 03:31:32;;;;;;;;;7.33;7.33;;;;;21.91;68.74;101198.28;5075429;27;45599;-68
2023/09/13 03:33:58;;;;;;;;;10.67;9.00;;;;;21.85;69.08;101187.81;5065212;27;45432;-69
2023/09/13 03:36:28;;;;;;;;;12.00;10.67;;;;;21.87;69.52;101207.31;5093417;27;47237;-68
2023/09/13 03:38:54;;;;;;;;;10.33;9.67;;;;;21.79;70.34;101198.72;5077305;27;45290;-67
2023/09/13 03:41:22;;;;;;;;;9.00;9.00;;;;;21.51;70.61;101164.22;5077180;27;45487;-68
2023/09/13 03:43:48;;;;;;;;;10.67;10.00;;;;;21.65;70.42;101193.03;5076706;27;45350;-67
2023/09/13 03:46:14;;;;;;;;;7.67;7.00;;;;;21.63;71.06;101192.22;5077035;27;46203;-68
2023/09/13 03:48:39;;;;;;;;;11.33;9.33;;;;;21.53;70.92;101183.69;5075922;27;45408;-68
2023/09/13 03:51:07;;;;;;;;;7.33;6.67;;;;;21.56;70.26;101187.09;5078227;27;45472;-69
2023/09/13 03:53:33;;;;;;;;;9.00;6.33;;;;;21.53;69.16;101181.03;5077079;27;45560;-69
2023/09/13 03:56:00;;;;;;;;;9.00;7.67;;;;;21.50;68.85;101162.50;5076886;27;45347;-69
2023/09/13 03:58:26;;;;;;;;;7.33;6.67;;;;;21.66;68.47;101189.44;5076940;27;45271;-69
2023/09/13 04:00:58;;;;;;;;;6.33;6.33;;;;;21.61;68.46;101184.28;5076824;27;45490;-67
2023/09/13 04:03:24;;;;;;;;;7.67;6.00;;;;;21.63;68.50;101173.56;5093000;27;45389;-68
2023/09/13 04:05:50;;;;;;;;;8.67;7.00;;;;;21.76;68.19;101183.72;5073224;27;45425;-68
2023/09/13 04:08:16;;;;;;;;;6.00;6.00;;;;;21.73;68.20;101181.16;5065504;27;45532;-69
2023/09/13 04:10:41;;;;;;;;;6.00;6.00;;;;;21.81;68.04;101194.22;5076662;27;45422;-69
2023/09/13 04:13:07;;;;;;;;;6.33;6.00;;;;;21.80;67.73;101198.66;5076971;28;45531;-69
2023/09/13 04:15:33;;;;;;;;;13.00;9.00;;;;;21.68;68.70;101187.59;5076473;28;45454;-68
2023/09/13 04:17:58;;;;;;;;;11.67;8.00;;;;;21.67;69.08;101194.72;5071481;27;45424;-68
2023/09/13 04:20:24;;;;;;;;;8.00;6.33;;;;;21.65;68.89;101188.56;5068554;28;45421;-68
2023/09/13 04:22:49;;;;;;;;;12.33;7.67;;;;;21.65;68.55;101185.03;5076618;27;45412;-68
2023/09/13 04:25:16;;;;;;;;;8.67;7.33;;;;;21.65;68.71;101179.72;5076302;27;47716;-69
2023/09/13 04:27:45;;;;;;;;;8.33;6.33;;;;;21.68;68.94;101188.47;5077604;27;45506;-68
2023/09/13 04:30:12;;;;;;;;;8.00;8.00;;;;;21.68;68.87;101176.94;5077781;27;45239;-70
2023/09/13 04:32:38;;;;;;;;;8.00;8.00;;;;;21.58;69.04;101182.59;5076852;27;45456;-68
2023/09/13 04:35:04;;;;;;;;;12.33;10.67;;;;;21.30;69.91;101150.72;5076102;27;45466;-70
2023/09/13 04:37:30;;;;;;;;;9.00;8.67;;;;;21.46;69.51;101172.38;5076210;28;45564;-68
2023/09/13 04:39:57;;;;;;;;;13.00;11.00;;;;;21.55;69.51;101188.03;5092229;27;45436;-68
2023/09/13 04:42:22;;;;;;;;;5.67;5.67;;;;;21.55;69.01;101185.38;5075214;27;45453;-68
2023/09/13 04:44:48;;;;;;;;;7.67;7.67;;;;;21.62;68.75;101195.81;5076216;27;45543;-68
2023/09/13 04:47:13;;;;;;;;;8.67;7.67;;;;;21.58;69.34;101187.94;5076281;28;45401;-68
2023/09/13 04:49:43;;;;;;;;;10.00;9.33;;;;;21.56;68.57;101187.09;5077355;28;45488;-68
2023/09/13 04:52:10;;;;;;;;;8.33;7.33;;;;;21.57;68.33;101191.53;5075690;27;45416;-68
2023/09/13 04:54:36;;;;;;;;;11.00;8.00;;;;;21.62;68.21;101199.34;5076479;27;45607;-70
2023/09/13 04:57:03;;;;;;;;;9.67;6.33;;;;;21.63;68.15;101186.91;5080160;27;45402;-69
2023/09/13 04:59:42;;;;;;;;;9.33;6.00;;;;;21.67;68.02;101202.72;5080951;27;45402;-70
2023/09/13 05:02:10;;;;;;;;;8.67;8.67;;;;;21.60;67.89;101193.22;5095701;27;45478;-67
2023/09/13 05:04:36;;;;;;;;;11.00;9.67;;;;;21.68;67.87;101200.91;5079703;27;46208;-69
2023/09/13 05:07:02;;;;;;;;;7.67;7.00;;;;;21.50;67.62;101166.03;5066138;27;45415;-68
2023/09/13 05:09:27;;;;;;;;;6.67;6.67;;;;;21.74;67.43;101204.22;5078549;27;46417;-69
2023/09/13 05:11:53;;;;;;;;;9.33;8.67;;;;;21.69;67.55;101194.66;5079894;27;45674;-69
2023/09/13 05:14:19;;;;;;;;;8.00;7.33;;;;;21.68;67.39;101192.91;5080686;27;45408;-69
2023/09/13 05:16:44;;;;;;;;;9.67;9.67;;;;;21.68;67.21;101195.59;5080757;27;45286;-69
2023/09/13 05:19:10;;;;;;;;;8.67;7.00;;;;;21.70;67.14;101201.75;5079924;27;45348;-69
2023/09/13 05:21:35;;;;;;;;;9.00;9.00;;;;;21.81;67.09;101221.75;5079395;28;45463;-68
2023/09/13 05:24:01;;;;;;;;;16.33;8.33;;;;;21.56;67.95;101195.09;5078710;27;45558;-69
2023/09/13 05:26:27;;;;;;;;;11.67;9.33;;;;;21.68;68.28;101216.91;5079033;27;45329;-69
2023/09/13 05:28:52;;;;;;;;;11.67;11.00;;;;;21.41;69.14;101216.13;5077760;27;45339;-68
2023/09/13 05:31:19;;;;;;;;;11.67;8.33;;;;;21.34;69.23;101232.28;5078070;27;45401;-68
2023/09/13 05:33:44;;;;;;;;;11.00;10.67;;;;;21.44;68.86;101237.31;5079015;27;46526;-69
2023/09/13 05:36:12;;;;;;;;;12.00;11.67;;;;;21.42;69.02;101233.84;5078977;27;45570;-68
2023/09/13 05:38:38;;;;;;;;;11.67;10.00;;;;;21.34;68.92;101226.09;5079743;27;45811;-68
2023/09/13 05:41:11;;;;;;;;;13.00;12.00;;;;;21.46;68.78;101246.13;5081497;27;45622;-67
2023/09/13 05:43:41;;;;;;;;;9.67;8.67;;;;;21.47;67.92;101247.88;5080356;27;45533;-69
2023/09/13 05:46:07;;;;;;;;;8.67;8.67;;;;;21.46;67.84;101246.13;5079363;27;45461;-67
2023/09/13 05:48:34;;;;;;;;;7.33;7.33;;;;;21.53;67.68;101256.53;5079159;27;45437;-69
2023/09/13 05:51:00;;;;;;;;;7.00;7.00;;;;;21.55;67.21;101252.00;5095116;27;45562;-68
2023/09/13 05:53:26;;;;;;;;;11.00;9.33;;;;;21.59;67.16;101255.41;5079129;27;45262;-68
2023/09/13 05:55:51;;;;;;;;;8.00;8.00;;;;;21.52;67.23;101241.47;5079733;27;45420;-69
2023/09/13 05:58:17;;;;;;;;;11.00;10.00;;;;;21.52;66.85;101245.91;5070223;27;45467;-69
2023/09/13 06:00:46;;;;;;;;;9.00;7.67;;;;;21.60;66.54;101250.06;5063570;27;45441;-68
2023/09/13 06:03:12;;;;;;;;;11.00;8.33;;;;;21.69;67.62;101258.63;5060419;27;45520;-70
2023/09/13 06:05:37;;;;;;;;;7.33;6.33;;;;;21.87;66.84;101263.31;5067466;28;46798;-71
2023/09/13 06:08:03;;;;;;;;;47.33;41.33;;;;;22.02;66.77;101261.88;5065098;27;45658;-69
2023/09/13 06:10:29;;;;;;;;;56.00;45.25;;;;;22.18;65.30;101268.34;5078874;27;45315;-71
2023/09/13 06:12:55;;;;;;;;;27.33;27.33;;;;;22.15;65.39;101262.28;5077368;27;45684;-68
2023/09/13 06:15:20;;;;;;;;;16.67;15.00;;;;;22.31;65.00;101273.28;5078515;28;45341;-68
2023/09/13 06:17:46;;;;;;;;;13.33;10.00;;;;;22.41;64.86;101270.19;5077191;27;45424;-68
2023/09/13 06:20:11;;;;;;;;;8.33;8.33;;;;;22.46;63.97;101272.66;5078498;27;45379;-69
2023/09/13 06:22:37;;;;;;;;;15.33;11.67;;;;;22.46;63.87;101272.66;5060445;27;45988;-68
2023/09/13 06:25:03;;;;;;;;;8.33;8.33;;;;;22.58;63.63;101277.53;5058135;28;45457;-69
2023/09/13 06:27:29;;;;;;;;;11.33;10.33;;;;;22.66;63.56;101269.22;5060980;27;46108;-68
2023/09/13 06:29:55;;;;;;;;;8.00;7.33;;;;;22.62;63.24;101259.59;5074446;27;45458;-67
2023/09/13 06:32:21;;;;;;;;;11.67;9.33;;;;;22.67;63.53;101273.63;5078035;27;46255;-68
2023/09/13 06:34:47;;;;;;;;;13.00;8.33;;;;;22.74;62.97;101279.59;5056345;27;45482;-68
2023/09/13 06:37:12;;;;;;;;;9.00;9.00;;;;;22.77;62.96;101284.81;5063738;27;45460;-69
2023/09/13 06:39:38;;;;;;;;;13.67;10.00;;;;;22.79;62.75;101280.28;5090690;27;45270;-67
2023/09/13 06:42:05;;;;;;;;;11.00;9.67;;;;;22.70;62.55;101251.28;5064294;28;45611;-69
2023/09/13 06:44:30;;;;;;;;;11.00;11.00;;;;;22.92;62.54;101289.56;5067188;27;45516;-69
2023/09/13 06:46:56;;;;;;;;;7.67;7.67;;;;;22.94;62.11;101294.81;5057715;27;45690;-69
2023/09/13 06:49:22;;;;;;;;;12.00;12.00;;;;;22.94;62.49;101282.31;5063479;27;45351;-67
2023/09/13 06:51:47;;;;;;;;;8.67;8.00;;;;;22.94;62.04;101284.13;5060328;27;45589;-68
2023/09/13 06:54:13;;;;;;;;;11.33;11.33;;;;;22.95;62.03;101285.88;5057214;27;45438;-69
2023/09/13 06:56:41;;;;;;;;;14.33;10.67;;;;;22.95;62.10;101293.88;5064170;27;45480;-69
2023/09/13 06:59:06;;;;;;;;;11.00;11.00;;;;;22.94;62.05;101287.66;5057329;28;45395;-68
2023/09/13 07:01:32;;;;;;;;;9.00;8.33;;;;;22.96;61.77;101291.13;5059906;27;46421;-68
2023/09/13 07:03:58;;;;;;;;;8.67;8.67;;;;;22.95;61.93;101296.56;5072621;27;46068;-68
2023/09/13 07:06:24;;;;;;;;;10.33;10.33;;;;;22.93;62.00;101295.75;5065263;28;45496;-69
2023/09/13 07:08:49;;;;;;;;;11.33;11.00;;;;;22.96;61.82;101298.28;5058053;27;45557;-68
2023/09/13 07:11:16;;;;;;;;;8.00;8.00;;;;;22.97;61.67;101294.66;5060024;27;46519;-68
2023/09/13 07:13:42;;;;;;;;;11.67;11.33;;;;;22.99;61.77;101300.84;5070331;27;45388;-69
2023/09/13 07:16:08;;;;;;;;;14.00;12.00;;;;;22.90;61.84;101282.50;5068123;27;45366;-69
2023/09/13 07:18:33;;;;;;;;;12.00;12.00;;;;;23.02;61.44;101309.63;5056746;28;45422;-68
2023/09/13 07:20:59;;;;;;;;;14.33;10.67;;;;;22.99;61.80;101306.19;5067757;27;46200;-70
2023/09/13 07:23:25;;;;;;;;;12.00;9.00;;;;;22.95;61.58;101305.44;5057081;28;45445;-68
2023/09/13 07:25:51;;;;;;;;;14.00;12.00;;;;;22.89;61.37;101294.13;5062859;27;45464;-68
2023/09/13 07:28:17;;;;;;;;;10.67;9.67;;;;;23.00;61.48;101318.66;5070546;28;45476;-68
2023/09/13 07:30:43;;;;;;;;;12.67;11.00;;;;;22.99;61.83;101319.56;5058307;27;46096;-68
2023/09/13 07:33:08;;;;;;;;;11.00;10.00;;;;;23.03;61.58;101318.50;5056573;27;45522;-68
2023/09/13 07:35:35;;;;;;;;;16.00;12.00;;;;;22.95;62.63;101317.94;5056795;27;45685;-68
2023/09/13 07:38:01;;;;;;;;;13.00;10.33;;;;;22.82;62.67;101321.06;5057352;27;45334;-68
2023/09/13 07:40:26;;;;;;;;;12.33;11.00;;;;;22.74;62.65;101307.16;5056471;27;45384;-69
2023/09/13 07:42:52;;;;;;;;;12.33;10.67;;;;;22.88;62.40;101330.66;5057311;27;45633;-68
2023/09/13 07:45:19;;;;;;;;;12.67;12.00;;;;;22.84;62.47;101326.38;5058289;28;45389;-68
2023/09/13 07:47:44;;;;;;;;;10.33;10.33;;;;;22.84;62.23;101326.38;5057287;28;45315;-70
2023/09/13 07:50:40;;;;;;;;;11.33;9.00;;;;;22.96;61.89;101341.88;5056607;27;45483;-69
2023/09/13 07:53:07;;;;;;;;;12.00;11.00;;;;;22.95;61.62;101334.81;5063169;27;45375;-70
2023/09/13 07:55:34;;;;;;;;;13.33;10.67;;;;;23.05;61.38;101340.69;5071307;28;45479;-70
2023/09/13 07:58:00;;;;;;;;;14.00;12.33;;;;;23.09;61.06;101350.34;5074746;27;45418;-71
2023/09/13 08:00:26;;;;;;;;;15.00;14.33;;;;;23.11;61.29;101340.44;5070236;27;45445;-68
2023/09/13 08:02:52;;;;;;;;;14.00;13.00;;;;;23.16;61.11;101351.81;5056883;27;45482;-69
2023/09/13 08:05:18;;;;;;;;;13.00;12.33;;;;;23.15;61.00;101358.09;5056273;27;45540;-69
2023/09/13 08:07:46;;;;;;;;;14.33;10.67;;;;;23.09;60.52;101339.66;5061376;27;46455;-69
2023/09/13 08:10:12;;;;;;;;;12.00;12.00;;;;;23.15;60.67;101354.53;5076468;28;46292;-68
2023/09/13 08:12:37;;;;;;;;;13.67;12.33;;;;;23.17;60.55;101366.91;5076048;27;45418;-68
2023/09/13 08:15:03;;;;;;;;;12.67;11.00;;;;;23.22;60.55;101364.91;5076670;27;45331;-69
2023/09/13 08:17:29;;;;;;;;;22.67;18.00;;;;;23.29;60.33;101360.19;5063282;27;45533;-68
2023/09/13 08:19:56;;;;;;;;;16.33;16.00;;;;;23.36;60.22;101368.84;5058858;27;46106;-68
2023/09/13 08:22:25;;;;;;;;;18.67;14.67;;;;;23.43;59.61;101371.19;5062227;27;45326;-70
2023/09/13 08:24:57;;;;;;;;;14.00;12.33;;;;;23.45;59.96;101376.47;5060163;28;45338;-69
2023/09/13 08:27:42;;;;;;;;;14.33;14.33;;;;;23.44;60.09;101377.38;5056842;28;45322;-70
2023/09/13 08:30:11;;;;;;;;;11.33;10.33;;;;;23.43;59.94;101373.84;5059062;27;45998;-69
2023/09/13 08:32:37;;;;;;;;;12.33;12.33;;;;;23.55;59.54;101387.66;5055624;28;45523;-70
2023/09/13 08:35:03;;;;;;;;;10.67;9.33;;;;;23.59;59.87;101395.47;5060877;27;45507;-71
2023/09/13 08:37:33;;;;;;;;;12.33;12.33;;;;;23.58;59.23;101393.72;5061586;27;45479;-68
2023/09/13 08:40:00;;;;;;;;;14.00;12.33;;;;;23.42;60.07;101388.16;5093454;27;45388;-69
2023/09/13 08:42:33;;;;;;;;;17.33;14.67;;;;;23.51;60.37;101400.25;5059798;27;45460;-68
2023/09/13 08:44:59;;;;;;;;;17.00;14.67;;;;;23.41;59.91;101396.25;5062893;27;45387;-69
2023/09/13 08:47:27;;;;;;;;;15.00;15.00;;;;;23.47;60.06;101410.22;5076073;28;45523;-69
2023/09/13 08:49:53;;;;;;;;;17.67;15.67;;;;;23.45;60.07;101401.41;5063767;27;46075;-69
2023/09/13 08:52:20;;;;;;;;;15.67;13.67;;;;;23.40;60.63;101397.19;5063710;27;45550;-69
2023/09/13 08:54:48;;;;;;;;;14.33;14.33;;;;;23.46;60.40;101420.97;5059249;27;45434;-68
2023/09/13 08:57:15;;;;;;;;;14.00;13.33;;;;;23.35;60.54;101407.16;5063878;27;45329;-69
2023/09/13 08:59:42;;;;;;;;;15.33;12.33;;;;;23.57;60.03;101423.22;5059072;27;47539;-68
2023/09/13 09:02:17;;;;;;;;;14.00;14.00;;;;;23.49;60.68;101400.34;5060572;27;45574;-70
2023/09/13 09:04:43;;;;;;;;;18.67;14.00;;;;;23.70;59.89;101422.66;5059120;27;45421;-69
2023/09/13 09:07:09;;;;;;;;;13.67;13.67;;;;;23.80;59.80;101430.28;5059156;27;45647;-70
2023/09/13 09:09:36;;;;;;;;;16.67;14.00;;;;;23.77;60.31;101425.94;5079137;27;45575;-70
2023/09/13 09:12:06;;;;;;;;;13.33;13.33;;;;;23.80;59.19;101433.88;5079626;27;45443;-69
2023/09/13 09:14:33;;;;;;;;;15.33;13.67;;;;;23.83;59.32;101431.06;5079652;27;45425;-69
2023/09/13 09:17:00;;;;;;;;;18.00;15.67;;;;;23.83;60.24;101435.53;5079490;27;45446;-69
2023/09/13 09:19:27;;;;;;;;;13.67;12.67;;;;;23.85;59.30;101428.31;5077900;27;46647;-71
2023/09/13 09:21:53;;;;;;;;;13.67;13.67;;;;;23.84;60.65;101434.59;5079205;27;45427;-70
2023/09/13 09:24:19;;;;;;;;;17.33;15.67;;;;;23.87;60.08;101438.03;5078549;27;45404;-71
2023/09/13 09:26:45;;;;;;;;;21.00;17.00;;;;;23.83;60.10;101433.72;5073055;27;45385;-70
2023/09/13 09:29:15;;;;;;;;;15.67;14.33;;;;;23.93;59.01;101431.53;5067036;27;45362;-69
2023/09/13 09:31:41;;;;;;;;;15.33;12.67;;;;;23.96;59.67;101444.75;5058535;27;45435;-70
2023/09/13 09:34:10;;;;;;;;;15.33;14.33;;;;;24.00;59.73;101438.34;5057182;27;45501;-70
2023/09/13 09:36:44;;;;;;;;;15.33;14.00;;;;;23.97;58.86;101427.78;5058829;27;45559;-70
2023/09/13 09:39:11;;;;;;;;;13.00;13.00;;;;;23.93;59.53;101434.19;5059222;27;46703;-70
2023/09/13 09:41:38;;;;;;;;;20.67;18.67;;;;;23.88;59.59;101441.56;5058410;27;45257;-69
2023/09/13 09:44:05;;;;;;;;;15.67;14.33;;;;;23.86;59.02;101438.94;5061176;27;45287;-72
2023/09/13 09:46:32;;;;;;;;;16.67;15.00;;;;;23.83;59.66;101446.25;5063064;27;45347;-71
2023/09/13 09:48:59;;;;;;;;;16.67;14.67;;;;;23.87;59.49;101450.50;5057650;27;46312;-68
2023/09/13 09:51:24;;;;;;;;;15.33;15.33;;;;;23.87;60.31;101447.81;5058401;27;45323;-70
2023/09/13 09:53:50;;;;;;;;;15.67;15.33;;;;;23.90;59.97;101447.72;5057180;27;45235;-69
2023/09/13 09:56:31;;;;;;;;;14.67;13.00;;;;;23.92;59.77;101451.19;5058734;27;45278;-71
2023/09/13 09:58:57;;;;;;;;;18.00;15.25;;;;;23.74;59.39;101417.19;5058326;27;47590;-68
2023/09/13 10:01:25;;;;;;;;;15.33;13.00;;;;;23.95;58.99;101440.34;5058184;27;45597;-70
2023/09/13 10:03:54;;;;;;;;;11.67;11.33;;;;;24.02;58.50;101457.03;5090967;27;45507;-71
2023/09/13 10:06:21;;;;;;;;;9.00;9.00;;;;;24.08;58.28;101452.28;5058906;27;45414;-71
2023/09/13 10:08:48;;;;;;;;;11.75;8.50;;;;;24.23;57.98;101464.13;5078875;27;45531;-70
2023/09/13 10:11:22;;;;;;;;;11.25;9.25;;;;;24.40;57.64;101462.53;5077376;27;45385;-72
2023/09/13 10:13:49;;;;;;;;;13.00;9.67;;;;;24.54;57.26;101466.34;5077581;27;45537;-73
2023/09/13 10:16:16;;;;;;;;;11.75;10.75;;;;;24.20;56.81;101391.13;5079586;27;45398;-75
2023/09/13 10:18:49;;;;;;;;;13.25;12.50;;;;;24.79;56.96;101475.06;5077866;27;46313;-76
2023/09/13 10:21:24;;;;;;;;;14.25;12.25;;;;;24.91;56.89;101461.97;5074629;27;45464;-72
2023/09/13 10:23:56;;;;;;;;;11.00;10.50;;;;;24.68;55.85;101389.88;5080325;27;45489;-74
2023/09/13 10:26:25;;;;;;;;;11.50;11.50;;;;;24.85;55.07;101397.09;5075966;27;45495;-75
2023/09/13 10:28:55;;;;;;;;;8.75;8.25;;;;;25.01;54.87;101410.63;5069421;28;45285;-74
2023/09/13 10:31:28;;;;;;;;;10.50;8.75;;;;;25.05;53.96;101402.38;5077674;27;45519;-73
2023/09/13 10:34:01;;;;;;;;;11.75;10.75;;;;;25.00;54.06;101393.69;5093549;27;45489;-75
2023/09/13 10:36:43;;;;;;;;;13.25;10.25;;;;;25.54;53.96;101468.88;5077569;27;45572;-74
2023/09/13 10:39:18;;;;;;;;;15.00;13.25;;;;;25.65;53.71;101474.59;5076700;27;47119;-74
2023/09/13 10:42:06;;;;;;;;;13.00;13.00;;;;;25.68;53.54;101477.09;5093941;27;45413;-74
2023/09/13 10:44:41;;;;;;;;;18.00;15.33;;;;;24.47;52.76;101314.94;5078078;27;45300;-74
2023/09/13 10:47:08;;;;;;;;;21.67;20.00;;;;;24.61;53.08;101393.78;5094796;27;45519;-75
2023/09/13 10:49:36;;;;;;;;;17.67;15.33;;;;;24.49;53.93;101444.25;5078548;27;46133;-75
2023/09/13 10:52:03;;;;;;;;;20.00;14.75;;;;;24.58;55.00;101468.88;5077191;27;45368;-74
2023/09/13 10:54:31;;;;;;;;;20.00;16.00;;;;;24.33;54.44;101419.09;5079000;27;45446;-75
2023/09/13 10:56:58;;;;;;;;;16.00;13.75;;;;;24.00;55.45;101379.50;5077470;27;45519;-74
2023/09/13 10:59:25;;;;;;;;;18.00;15.33;;;;;24.26;55.35;101450.59;5078999;27;47918;-73
2023/09/13 11:01:51;;;;;;;;;20.67;18.00;;;;;23.77;56.20;101390.31;5080005;27;45498;-75
2023/09/13 11:04:19;;;;;;;;;19.33;17.00;;;;;23.90;55.58;101424.50;5073072;28;45398;-73
2023/09/13 11:06:48;;;;;;;;;29.33;27.33;;;;;23.65;56.05;101411.25;5064671;27;45373;-72
2023/09/13 11:09:23;;;;;;;;;21.33;18.33;;;;;23.99;56.03;101452.69;5077135;27;46432;-73
2023/09/13 11:11:51;;;;;;;;;15.00;15.00;;;;;24.16;56.15;101468.00;5079663;27;45272;-71
2023/09/13 11:14:31;;;;;;;;;12.75;11.25;;;;;24.40;55.34;101462.53;5079644;27;45605;-72